sensor_id;sensor_type;location;lat;lon;timestamp;P1;durP1;ratioP1;P2;durP2;ratioP2
71387;SDS011;59201;59.902;10.520;2023-02-15T00:01:15;22.23;;;8.02;;
71387;SDS011;59201;59.902;10.520;2023-02-15T00:03:41;24.15;;;9.00;;
71387;SDS011;59201;59.902;10.520;2023-02-15T00:06:07;28.35;;;10.68;;
71387;SDS011;59201;59.902;10.520;2023-02-15T00:08:33;24.37;;;10.03;;
71387;SDS011;59201;59.902;10.520;2023-02-15T00:11:03;24.42;;;9.73;;
71387;SDS011;59201;59.902;10.520;2023-02-15T00:13:30;25.40;;;9.48;;
71387;SDS011;59201;59.902;10.520;2023-02-15T00:16:02;26.50;;;10.05;;
71387;SDS011;59201;59.902;10.520;2023-02-15T00:18:29;22.85;;;9.30;;
71387;SDS011;59201;59.902;10.520;2023-02-15T00:20:55;20.83;;;8.17;;
71387;SDS011;59201;59.902;10.520;2023-02-15T00:23:21;22.50;;;7.97;;
71387;SDS011;59201;59.902;10.520;2023-02-15T00:25:47;21.85;;;8.35;;
71387;SDS011;59201;59.902;10.520;2023-02-15T00:28:13;23.70;;;8.32;;
71387;SDS011;59201;59.902;10.520;2023-02-15T00:30:40;18.10;;;6.93;;
71387;SDS011;59201;59.902;10.520;2023-02-15T00:33:06;22.80;;;8.87;;
71387;SDS011;59201;59.902;10.520;2023-02-15T00:35:32;24.00;;;8.55;;
71387;SDS011;59201;59.902;10.520;2023-02-15T00:37:58;23.38;;;8.75;;
71387;SDS011;59201;59.902;10.520;2023-02-15T00:40:24;21.27;;;8.85;;
71387;SDS011;59201;59.902;10.520;2023-02-15T00:42:50;24.20;;;8.70;;
71387;SDS011;59201;59.902;10.520;2023-02-15T00:45:16;23.83;;;8.57;;
71387;SDS011;59201;59.902;10.520;2023-02-15T00:47:42;26.77;;;9.65;;
71387;SDS011;59201;59.902;10.520;2023-02-15T00:50:08;22.55;;;8.02;;
71387;SDS011;59201;59.902;10.520;2023-02-15T00:52:34;20.48;;;8.07;;
71387;SDS011;59201;59.902;10.520;2023-02-15T00:55:01;22.98;;;7.88;;
71387;SDS011;59201;59.902;10.520;2023-02-15T00:57:27;18.70;;;8.43;;
71387;SDS011;59201;59.902;10.520;2023-02-15T00:59:53;23.33;;;8.52;;
71387;SDS011;59201;59.902;10.520;2023-02-15T01:02:19;24.15;;;8.70;;
71387;SDS011;59201;59.902;10.520;2023-02-15T01:04:45;21.23;;;8.80;;
71387;SDS011;59201;59.902;10.520;2023-02-15T01:07:11;22.63;;;8.82;;
71387;SDS011;59201;59.902;10.520;2023-02-15T01:09:37;22.47;;;8.60;;
71387;SDS011;59201;59.902;10.520;2023-02-15T01:12:03;23.75;;;8.50;;
71387;SDS011;59201;59.902;10.520;2023-02-15T01:14:29;24.27;;;9.50;;
71387;SDS011;59201;59.902;10.520;2023-02-15T01:16:55;21.35;;;8.18;;
71387;SDS011;59201;59.902;10.520;2023-02-15T01:19:21;20.73;;;8.45;;
71387;SDS011;59201;59.902;10.520;2023-02-15T01:21:47;23.33;;;8.73;;
71387;SDS011;59201;59.902;10.520;2023-02-15T01:24:14;23.85;;;8.23;;
71387;SDS011;59201;59.902;10.520;2023-02-15T01:26:40;25.10;;;7.85;;
71387;SDS011;59201;59.902;10.520;2023-02-15T01:29:06;19.27;;;6.78;;
71387;SDS011;59201;59.902;10.520;2023-02-15T01:31:32;19.52;;;6.63;;
71387;SDS011;59201;59.902;10.520;2023-02-15T01:33:58;18.50;;;6.00;;
71387;SDS011;59201;59.902;10.520;2023-02-15T01:36:24;17.67;;;6.45;;
71387;SDS011;59201;59.902;10.520;2023-02-15T01:38:50;16.77;;;6.03;;
71387;SDS011;59201;59.902;10.520;2023-02-15T01:41:16;15.20;;;5.63;;
71387;SDS011;59201;59.902;10.520;2023-02-15T01:43:49;17.63;;;5.82;;
71387;SDS011;59201;59.902;10.520;2023-02-15T01:46:16;16.93;;;6.17;;
71387;SDS011;59201;59.902;10.520;2023-02-15T01:48:47;18.80;;;6.57;;
71387;SDS011;59201;59.902;10.520;2023-02-15T01:51:14;15.50;;;5.65;;
71387;SDS011;59201;59.902;10.520;2023-02-15T01:53:43;15.57;;;5.68;;
71387;SDS011;59201;59.902;10.520;2023-02-15T01:56:13;16.85;;;5.78;;
71387;SDS011;59201;59.902;10.520;2023-02-15T01:58:40;16.10;;;5.93;;
71387;SDS011;59201;59.902;10.520;2023-02-15T02:01:07;14.30;;;5.45;;
71387;SDS011;59201;59.902;10.520;2023-02-15T02:06:12;14.05;;;5.20;;
71387;SDS011;59201;59.902;10.520;2023-02-15T02:08:38;16.02;;;5.70;;
71387;SDS011;59201;59.902;10.520;2023-02-15T02:11:13;15.40;;;5.43;;
71387;SDS011;59201;59.902;10.520;2023-02-15T02:13:40;18.75;;;5.75;;
71387;SDS011;59201;59.902;10.520;2023-02-15T02:18:49;14.02;;;4.82;;
71387;SDS011;59201;59.902;10.520;2023-02-15T02:26:37;17.50;;;6.10;;
71387;SDS011;59201;59.902;10.520;2023-02-15T02:29:20;14.40;;;5.03;;
71387;SDS011;59201;59.902;10.520;2023-02-15T02:37:24;14.67;;;5.37;;
71387;SDS011;59201;59.902;10.520;2023-02-15T02:42:25;14.20;;;5.32;;
71387;SDS011;59201;59.902;10.520;2023-02-15T02:45:16;13.00;;;4.70;;
71387;SDS011;59201;59.902;10.520;2023-02-15T02:47:41;12.23;;;4.18;;
71387;SDS011;59201;59.902;10.520;2023-02-15T02:50:12;11.43;;;3.60;;
71387;SDS011;59201;59.902;10.520;2023-02-15T02:55:06;10.73;;;4.57;;
71387;SDS011;59201;59.902;10.520;2023-02-15T02:57:34;12.38;;;4.25;;
71387;SDS011;59201;59.902;10.520;2023-02-15T03:00:02;11.77;;;3.97;;
71387;SDS011;59201;59.902;10.520;2023-02-15T03:02:34;12.23;;;3.87;;
71387;SDS011;59201;59.902;10.520;2023-02-15T03:05:02;9.68;;;3.72;;
71387;SDS011;59201;59.902;10.520;2023-02-15T03:07:29;14.10;;;4.30;;
71387;SDS011;59201;59.902;10.520;2023-02-15T03:10:00;10.65;;;3.90;;
71387;SDS011;59201;59.902;10.520;2023-02-15T03:12:31;11.02;;;3.92;;
71387;SDS011;59201;59.902;10.520;2023-02-15T03:15:00;13.30;;;4.10;;
71387;SDS011;59201;59.902;10.520;2023-02-15T03:17:27;12.25;;;4.13;;
71387;SDS011;59201;59.902;10.520;2023-02-15T03:19:57;13.35;;;4.25;;
71387;SDS011;59201;59.902;10.520;2023-02-15T03:22:28;12.60;;;3.85;;
71387;SDS011;59201;59.902;10.520;2023-02-15T03:24:57;11.63;;;4.03;;
71387;SDS011;59201;59.902;10.520;2023-02-15T03:27:31;12.23;;;4.23;;
71387;SDS011;59201;59.902;10.520;2023-02-15T03:29:58;12.75;;;4.50;;
71387;SDS011;59201;59.902;10.520;2023-02-15T03:32:26;9.85;;;3.88;;
71387;SDS011;59201;59.902;10.520;2023-02-15T03:34:54;13.85;;;4.53;;
71387;SDS011;59201;59.902;10.520;2023-02-15T03:37:24;13.05;;;4.35;;
71387;SDS011;59201;59.902;10.520;2023-02-15T03:39:56;11.20;;;4.03;;
71387;SDS011;59201;59.902;10.520;2023-02-15T03:42:43;12.32;;;4.30;;
71387;SDS011;59201;59.902;10.520;2023-02-15T03:45:11;12.65;;;4.03;;
71387;SDS011;59201;59.902;10.520;2023-02-15T03:47:41;9.95;;;4.05;;
71387;SDS011;59201;59.902;10.520;2023-02-15T03:50:10;11.90;;;4.15;;
71387;SDS011;59201;59.902;10.520;2023-02-15T03:52:56;11.67;;;3.93;;
71387;SDS011;59201;59.902;10.520;2023-02-15T03:55:24;11.65;;;4.07;;
71387;SDS011;59201;59.902;10.520;2023-02-15T03:57:50;12.10;;;4.32;;
71387;SDS011;59201;59.902;10.520;2023-02-15T04:00:36;11.75;;;3.95;;
71387;SDS011;59201;59.902;10.520;2023-02-15T04:03:40;12.60;;;4.45;;
71387;SDS011;59201;59.902;10.520;2023-02-15T04:06:07;11.00;;;3.60;;
71387;SDS011;59201;59.902;10.520;2023-02-15T04:08:33;11.05;;;3.28;;
71387;SDS011;59201;59.902;10.520;2023-02-15T04:11:18;11.13;;;4.22;;
71387;SDS011;59201;59.902;10.520;2023-02-15T04:13:44;12.68;;;4.00;;
71387;SDS011;59201;59.902;10.520;2023-02-15T04:16:10;12.52;;;4.63;;
71387;SDS011;59201;59.902;10.520;2023-02-15T04:18:42;11.90;;;3.70;;
71387;SDS011;59201;59.902;10.520;2023-02-15T04:21:28;10.20;;;3.45;;
71387;SDS011;59201;59.902;10.520;2023-02-15T04:24:13;10.88;;;3.85;;
71387;SDS011;59201;59.902;10.520;2023-02-15T04:26:59;12.75;;;3.83;;
71387;SDS011;59201;59.902;10.520;2023-02-15T04:29:25;12.05;;;3.83;;
71387;SDS011;59201;59.902;10.520;2023-02-15T04:31:52;12.00;;;3.67;;
71387;SDS011;59201;59.902;10.520;2023-02-15T04:34:18;7.95;;;3.03;;
71387;SDS011;59201;59.902;10.520;2023-02-15T04:36:45;8.98;;;3.42;;
71387;SDS011;59201;59.902;10.520;2023-02-15T04:39:12;12.15;;;3.53;;
71387;SDS011;59201;59.902;10.520;2023-02-15T04:41:39;11.50;;;3.78;;
71387;SDS011;59201;59.902;10.520;2023-02-15T04:44:05;11.10;;;3.87;;
71387;SDS011;59201;59.902;10.520;2023-02-15T04:46:31;10.13;;;3.38;;
71387;SDS011;59201;59.902;10.520;2023-02-15T04:48:57;12.13;;;4.05;;
71387;SDS011;59201;59.902;10.520;2023-02-15T04:51:23;10.07;;;3.45;;
71387;SDS011;59201;59.902;10.520;2023-02-15T04:53:50;9.23;;;3.47;;
71387;SDS011;59201;59.902;10.520;2023-02-15T04:56:17;10.93;;;4.10;;
71387;SDS011;59201;59.902;10.520;2023-02-15T04:58:44;11.73;;;4.20;;
71387;SDS011;59201;59.902;10.520;2023-02-15T05:01:10;11.18;;;3.63;;
71387;SDS011;59201;59.902;10.520;2023-02-15T05:03:36;9.93;;;3.53;;
71387;SDS011;59201;59.902;10.520;2023-02-15T05:06:02;12.60;;;4.07;;
71387;SDS011;59201;59.902;10.520;2023-02-15T05:08:28;10.73;;;3.70;;
71387;SDS011;59201;59.902;10.520;2023-02-15T05:10:55;11.30;;;3.55;;
71387;SDS011;59201;59.902;10.520;2023-02-15T05:13:21;11.45;;;4.22;;
71387;SDS011;59201;59.902;10.520;2023-02-15T05:15:48;11.82;;;4.28;;
71387;SDS011;59201;59.902;10.520;2023-02-15T05:18:14;12.82;;;5.22;;
71387;SDS011;59201;59.902;10.520;2023-02-15T05:20:40;17.10;;;5.00;;
71387;SDS011;59201;59.902;10.520;2023-02-15T05:23:06;11.73;;;4.00;;
71387;SDS011;59201;59.902;10.520;2023-02-15T05:25:33;14.40;;;4.28;;
71387;SDS011;59201;59.902;10.520;2023-02-15T05:28:17;15.48;;;4.28;;
71387;SDS011;59201;59.902;10.520;2023-02-15T05:30:50;14.23;;;4.70;;
71387;SDS011;59201;59.902;10.520;2023-02-15T05:33:16;13.20;;;4.47;;
71387;SDS011;59201;59.902;10.520;2023-02-15T05:35:42;11.98;;;4.05;;
71387;SDS011;59201;59.902;10.520;2023-02-15T05:38:09;11.70;;;4.68;;
71387;SDS011;59201;59.902;10.520;2023-02-15T05:40:35;13.80;;;4.43;;
71387;SDS011;59201;59.902;10.520;2023-02-15T05:43:01;13.35;;;4.47;;
71387;SDS011;59201;59.902;10.520;2023-02-15T05:45:27;11.70;;;4.20;;
71387;SDS011;59201;59.902;10.520;2023-02-15T05:47:53;14.38;;;4.95;;
71387;SDS011;59201;59.902;10.520;2023-02-15T05:50:20;13.80;;;4.72;;
71387;SDS011;59201;59.902;10.520;2023-02-15T05:52:46;11.88;;;4.07;;
71387;SDS011;59201;59.902;10.520;2023-02-15T05:55:12;12.95;;;4.57;;
71387;SDS011;59201;59.902;10.520;2023-02-15T05:57:38;12.67;;;5.20;;
71387;SDS011;59201;59.902;10.520;2023-02-15T06:00:04;14.18;;;4.70;;
71387;SDS011;59201;59.902;10.520;2023-02-15T06:02:34;11.38;;;4.20;;
71387;SDS011;59201;59.902;10.520;2023-02-15T06:05:00;16.45;;;4.45;;
71387;SDS011;59201;59.902;10.520;2023-02-15T06:07:26;14.13;;;4.88;;
71387;SDS011;59201;59.902;10.520;2023-02-15T06:09:52;14.07;;;4.67;;
71387;SDS011;59201;59.902;10.520;2023-02-15T06:12:18;13.35;;;4.95;;
71387;SDS011;59201;59.902;10.520;2023-02-15T06:14:45;12.93;;;4.55;;
71387;SDS011;59201;59.902;10.520;2023-02-15T06:17:11;11.90;;;4.07;;
71387;SDS011;59201;59.902;10.520;2023-02-15T06:19:37;12.45;;;4.05;;
71387;SDS011;59201;59.902;10.520;2023-02-15T06:22:03;11.47;;;3.97;;
71387;SDS011;59201;59.902;10.520;2023-02-15T06:24:29;11.20;;;3.47;;
71387;SDS011;59201;59.902;10.520;2023-02-15T06:26:55;11.82;;;4.05;;
71387;SDS011;59201;59.902;10.520;2023-02-15T06:29:21;9.63;;;3.35;;
71387;SDS011;59201;59.902;10.520;2023-02-15T06:31:47;11.48;;;4.22;;
71387;SDS011;59201;59.902;10.520;2023-02-15T06:34:14;13.57;;;4.40;;
71387;SDS011;59201;59.902;10.520;2023-02-15T06:36:40;11.90;;;4.43;;
71387;SDS011;59201;59.902;10.520;2023-02-15T06:39:06;12.45;;;4.22;;
71387;SDS011;59201;59.902;10.520;2023-02-15T06:41:32;13.52;;;4.45;;
71387;SDS011;59201;59.902;10.520;2023-02-15T06:43:58;11.23;;;3.85;;
71387;SDS011;59201;59.902;10.520;2023-02-15T06:46:25;11.87;;;4.07;;
71387;SDS011;59201;59.902;10.520;2023-02-15T06:48:51;15.10;;;4.88;;
71387;SDS011;59201;59.902;10.520;2023-02-15T06:51:17;11.95;;;4.32;;
71387;SDS011;59201;59.902;10.520;2023-02-15T06:53:43;11.77;;;3.92;;
71387;SDS011;59201;59.902;10.520;2023-02-15T06:56:09;13.43;;;4.55;;
71387;SDS011;59201;59.902;10.520;2023-02-15T06:58:37;12.63;;;4.50;;
71387;SDS011;59201;59.902;10.520;2023-02-15T07:01:03;12.90;;;4.75;;
71387;SDS011;59201;59.902;10.520;2023-02-15T07:03:30;14.48;;;4.80;;
71387;SDS011;59201;59.902;10.520;2023-02-15T07:05:57;12.18;;;4.22;;
71387;SDS011;59201;59.902;10.520;2023-02-15T07:08:24;13.07;;;4.53;;
71387;SDS011;59201;59.902;10.520;2023-02-15T07:10:50;12.57;;;3.90;;
71387;SDS011;59201;59.902;10.520;2023-02-15T07:13:17;11.15;;;3.88;;
71387;SDS011;59201;59.902;10.520;2023-02-15T07:15:43;13.77;;;4.43;;
71387;SDS011;59201;59.902;10.520;2023-02-15T07:18:09;12.98;;;4.70;;
71387;SDS011;59201;59.902;10.520;2023-02-15T07:20:36;11.50;;;4.22;;
71387;SDS011;59201;59.902;10.520;2023-02-15T07:23:03;12.20;;;4.67;;
71387;SDS011;59201;59.902;10.520;2023-02-15T07:25:29;12.30;;;4.22;;
71387;SDS011;59201;59.902;10.520;2023-02-15T07:27:58;13.30;;;5.00;;
71387;SDS011;59201;59.902;10.520;2023-02-15T07:30:28;12.45;;;3.40;;
71387;SDS011;59201;59.902;10.520;2023-02-15T07:32:57;11.52;;;4.70;;
71387;SDS011;59201;59.902;10.520;2023-02-15T07:35:46;13.87;;;3.87;;
71387;SDS011;59201;59.902;10.520;2023-02-15T07:38:12;11.32;;;3.97;;
71387;SDS011;59201;59.902;10.520;2023-02-15T07:40:38;11.25;;;3.72;;
71387;SDS011;59201;59.902;10.520;2023-02-15T07:43:04;13.05;;;5.03;;
71387;SDS011;59201;59.902;10.520;2023-02-15T07:45:31;12.02;;;4.40;;
71387;SDS011;59201;59.902;10.520;2023-02-15T07:47:57;12.77;;;4.33;;
71387;SDS011;59201;59.902;10.520;2023-02-15T07:50:23;15.95;;;4.13;;
71387;SDS011;59201;59.902;10.520;2023-02-15T07:52:49;12.40;;;4.07;;
71387;SDS011;59201;59.902;10.520;2023-02-15T07:55:15;13.77;;;4.70;;
71387;SDS011;59201;59.902;10.520;2023-02-15T07:57:42;13.30;;;4.50;;
71387;SDS011;59201;59.902;10.520;2023-02-15T08:00:09;12.77;;;4.40;;
71387;SDS011;59201;59.902;10.520;2023-02-15T08:02:36;11.02;;;4.10;;
71387;SDS011;59201;59.902;10.520;2023-02-15T08:05:02;13.23;;;4.70;;
71387;SDS011;59201;59.902;10.520;2023-02-15T08:07:28;12.32;;;4.43;;
71387;SDS011;59201;59.902;10.520;2023-02-15T08:09:55;13.65;;;4.57;;
71387;SDS011;59201;59.902;10.520;2023-02-15T08:12:21;13.07;;;4.37;;
71387;SDS011;59201;59.902;10.520;2023-02-15T08:14:47;13.40;;;4.70;;
71387;SDS011;59201;59.902;10.520;2023-02-15T08:17:13;11.55;;;4.57;;
71387;SDS011;59201;59.902;10.520;2023-02-15T08:19:39;13.68;;;4.72;;
71387;SDS011;59201;59.902;10.520;2023-02-15T08:22:05;13.63;;;4.93;;
71387;SDS011;59201;59.902;10.520;2023-02-15T08:24:34;10.47;;;3.87;;
71387;SDS011;59201;59.902;10.520;2023-02-15T08:27:02;11.63;;;4.38;;
71387;SDS011;59201;59.902;10.520;2023-02-15T08:29:28;11.25;;;4.45;;
71387;SDS011;59201;59.902;10.520;2023-02-15T08:31:56;13.07;;;4.78;;
71387;SDS011;59201;59.902;10.520;2023-02-15T08:34:27;18.42;;;5.32;;
71387;SDS011;59201;59.902;10.520;2023-02-15T08:36:54;13.27;;;4.20;;
71387;SDS011;59201;59.902;10.520;2023-02-15T08:39:20;12.20;;;4.72;;
71387;SDS011;59201;59.902;10.520;2023-02-15T08:41:46;13.30;;;4.13;;
71387;SDS011;59201;59.902;10.520;2023-02-15T08:44:13;11.07;;;4.25;;
71387;SDS011;59201;59.902;10.520;2023-02-15T08:46:41;12.00;;;4.70;;
71387;SDS011;59201;59.902;10.520;2023-02-15T08:49:07;10.90;;;4.27;;
71387;SDS011;59201;59.902;10.520;2023-02-15T08:51:34;13.98;;;4.60;;
71387;SDS011;59201;59.902;10.520;2023-02-15T08:54:03;13.68;;;4.63;;
71387;SDS011;59201;59.902;10.520;2023-02-15T08:56:32;10.98;;;4.07;;
71387;SDS011;59201;59.902;10.520;2023-02-15T08:58:58;11.90;;;4.20;;
71387;SDS011;59201;59.902;10.520;2023-02-15T09:01:25;13.93;;;5.40;;
71387;SDS011;59201;59.902;10.520;2023-02-15T09:03:54;12.27;;;4.50;;
71387;SDS011;59201;59.902;10.520;2023-02-15T09:06:21;11.80;;;4.30;;
71387;SDS011;59201;59.902;10.520;2023-02-15T09:08:47;13.77;;;4.88;;
71387;SDS011;59201;59.902;10.520;2023-02-15T09:11:21;10.27;;;3.75;;
71387;SDS011;59201;59.902;10.520;2023-02-15T09:13:49;12.90;;;4.50;;
71387;SDS011;59201;59.902;10.520;2023-02-15T09:16:15;13.65;;;4.43;;
71387;SDS011;59201;59.902;10.520;2023-02-15T09:18:42;13.82;;;5.07;;
71387;SDS011;59201;59.902;10.520;2023-02-15T09:21:09;14.25;;;4.75;;
71387;SDS011;59201;59.902;10.520;2023-02-15T09:23:38;14.70;;;5.25;;
71387;SDS011;59201;59.902;10.520;2023-02-15T09:26:06;14.80;;;5.13;;
71387;SDS011;59201;59.902;10.520;2023-02-15T09:28:32;13.35;;;4.97;;
71387;SDS011;59201;59.902;10.520;2023-02-15T09:31:06;13.20;;;5.13;;
71387;SDS011;59201;59.902;10.520;2023-02-15T09:33:35;12.98;;;4.35;;
71387;SDS011;59201;59.902;10.520;2023-02-15T09:36:03;12.60;;;4.78;;
71387;SDS011;59201;59.902;10.520;2023-02-15T09:38:29;14.63;;;5.03;;
71387;SDS011;59201;59.902;10.520;2023-02-15T09:46:15;12.93;;;4.43;;
71387;SDS011;59201;59.902;10.520;2023-02-15T09:48:42;12.85;;;4.88;;
71387;SDS011;59201;59.902;10.520;2023-02-15T09:51:18;11.47;;;4.60;;
71387;SDS011;59201;59.902;10.520;2023-02-15T09:53:54;11.93;;;4.20;;
71387;SDS011;59201;59.902;10.520;2023-02-15T09:56:28;13.88;;;5.30;;
71387;SDS011;59201;59.902;10.520;2023-02-15T10:07:16;13.68;;;4.88;;
71387;SDS011;59201;59.902;10.520;2023-02-15T10:09:55;12.27;;;4.43;;
71387;SDS011;59201;59.902;10.520;2023-02-15T10:19:45;14.25;;;5.00;;
71387;SDS011;59201;59.902;10.520;2023-02-15T10:22:19;15.50;;;6.18;;
71387;SDS011;59201;59.902;10.520;2023-02-15T10:27:37;13.48;;;4.47;;
71387;SDS011;59201;59.902;10.520;2023-02-15T10:30:11;13.37;;;4.43;;
71387;SDS011;59201;59.902;10.520;2023-02-15T10:35:34;12.88;;;4.53;;
71387;SDS011;59201;59.902;10.520;2023-02-15T10:40:40;13.57;;;5.30;;
71387;SDS011;59201;59.902;10.520;2023-02-15T10:48:47;14.27;;;5.00;;
71387;SDS011;59201;59.902;10.520;2023-02-15T10:51:11;12.70;;;4.95;;
71387;SDS011;59201;59.902;10.520;2023-02-15T11:01:27;12.05;;;4.22;;
71387;SDS011;59201;59.902;10.520;2023-02-15T11:06:25;15.77;;;4.22;;
71387;SDS011;59201;59.902;10.520;2023-02-15T11:09:01;11.27;;;3.93;;
71387;SDS011;59201;59.902;10.520;2023-02-15T11:11:29;12.27;;;3.80;;
71387;SDS011;59201;59.902;10.520;2023-02-15T11:13:58;10.48;;;3.65;;
71387;SDS011;59201;59.902;10.520;2023-02-15T11:16:30;12.07;;;3.88;;
71387;SDS011;59201;59.902;10.520;2023-02-15T11:18:59;9.20;;;3.10;;
71387;SDS011;59201;59.902;10.520;2023-02-15T11:23:54;10.55;;;3.80;;
71387;SDS011;59201;59.902;10.520;2023-02-15T11:26:24;11.65;;;4.07;;
71387;SDS011;59201;59.902;10.520;2023-02-15T11:29:01;11.30;;;4.20;;
71387;SDS011;59201;59.902;10.520;2023-02-15T11:31:45;13.02;;;4.28;;
71387;SDS011;59201;59.902;10.520;2023-02-15T11:34:13;10.83;;;4.20;;
71387;SDS011;59201;59.902;10.520;2023-02-15T11:36:41;10.18;;;3.75;;
71387;SDS011;59201;59.902;10.520;2023-02-15T11:39:13;4.63;;;1.70;;
71387;SDS011;59201;59.902;10.520;2023-02-15T11:41:41;11.82;;;3.58;;
71387;SDS011;59201;59.902;10.520;2023-02-15T11:46:40;14.47;;;3.77;;
71387;SDS011;59201;59.902;10.520;2023-02-15T11:51:51;11.40;;;3.90;;
71387;SDS011;59201;59.902;10.520;2023-02-15T11:54:19;11.93;;;4.68;;
71387;SDS011;59201;59.902;10.520;2023-02-15T11:56:47;12.27;;;4.45;;
71387;SDS011;59201;59.902;10.520;2023-02-15T11:59:15;11.20;;;3.77;;
71387;SDS011;59201;59.902;10.520;2023-02-15T12:01:44;13.82;;;4.93;;
71387;SDS011;59201;59.902;10.520;2023-02-15T12:06:48;9.82;;;3.58;;
71387;SDS011;59201;59.902;10.520;2023-02-15T12:09:35;11.25;;;4.40;;
71387;SDS011;59201;59.902;10.520;2023-02-15T12:12:21;12.37;;;4.50;;
71387;SDS011;59201;59.902;10.520;2023-02-15T12:14:51;10.88;;;4.00;;
71387;SDS011;59201;59.902;10.520;2023-02-15T12:17:20;11.40;;;4.13;;
71387;SDS011;59201;59.902;10.520;2023-02-15T12:19:46;12.63;;;4.07;;
71387;SDS011;59201;59.902;10.520;2023-02-15T12:22:22;12.65;;;4.60;;
71387;SDS011;59201;59.902;10.520;2023-02-15T12:24:49;13.10;;;4.73;;
71387;SDS011;59201;59.902;10.520;2023-02-15T12:29:44;13.70;;;4.53;;
71387;SDS011;59201;59.902;10.520;2023-02-15T12:35:01;16.65;;;4.68;;
71387;SDS011;59201;59.902;10.520;2023-02-15T12:37:29;13.00;;;4.50;;
71387;SDS011;59201;59.902;10.520;2023-02-15T12:40:00;15.55;;;5.10;;
71387;SDS011;59201;59.902;10.520;2023-02-15T12:42:27;14.85;;;4.47;;
71387;SDS011;59201;59.902;10.520;2023-02-15T12:44:58;13.80;;;4.60;;
71387;SDS011;59201;59.902;10.520;2023-02-15T12:47:25;11.27;;;4.28;;
71387;SDS011;59201;59.902;10.520;2023-02-15T12:52:30;13.50;;;5.03;;
71387;SDS011;59201;59.902;10.520;2023-02-15T12:55:05;15.40;;;5.10;;
71387;SDS011;59201;59.902;10.520;2023-02-15T12:57:35;13.05;;;4.72;;
71387;SDS011;59201;59.902;10.520;2023-02-15T13:07:38;11.68;;;4.53;;
71387;SDS011;59201;59.902;10.520;2023-02-15T13:10:33;11.85;;;4.15;;
71387;SDS011;59201;59.902;10.520;2023-02-15T13:12:56;12.80;;;4.85;;
71387;SDS011;59201;59.902;10.520;2023-02-15T13:20:53;12.70;;;4.03;;
71387;SDS011;59201;59.902;10.520;2023-02-15T13:25:48;13.77;;;4.72;;
71387;SDS011;59201;59.902;10.520;2023-02-15T13:28:16;14.77;;;5.10;;
71387;SDS011;59201;59.902;10.520;2023-02-15T13:30:46;13.80;;;4.90;;
71387;SDS011;59201;59.902;10.520;2023-02-15T13:35:44;11.82;;;4.25;;
71387;SDS011;59201;59.902;10.520;2023-02-15T13:41:28;12.63;;;4.30;;
71387;SDS011;59201;59.902;10.520;2023-02-15T13:46:50;12.07;;;3.85;;
71387;SDS011;59201;59.902;10.520;2023-02-15T13:57:05;15.68;;;5.32;;
71387;SDS011;59201;59.902;10.520;2023-02-15T14:07:43;9.37;;;3.33;;
71387;SDS011;59201;59.902;10.520;2023-02-15T14:13:05;16.25;;;6.13;;
71387;SDS011;59201;59.902;10.520;2023-02-15T14:15:41;17.80;;;5.25;;
71387;SDS011;59201;59.902;10.520;2023-02-15T14:18:15;17.65;;;5.22;;
71387;SDS011;59201;59.902;10.520;2023-02-15T14:31:09;20.83;;;6.18;;
71387;SDS011;59201;59.902;10.520;2023-02-15T14:33:40;19.87;;;5.83;;
71387;SDS011;59201;59.902;10.520;2023-02-15T14:36:08;16.23;;;5.32;;
71387;SDS011;59201;59.902;10.520;2023-02-15T14:48:55;19.85;;;6.25;;
71387;SDS011;59201;59.902;10.520;2023-02-15T14:52:21;15.45;;;5.40;;
71387;SDS011;59201;59.902;10.520;2023-02-15T15:07:42;22.85;;;6.88;;
71387;SDS011;59201;59.902;10.520;2023-02-15T15:12:45;21.03;;;5.90;;
71387;SDS011;59201;59.902;10.520;2023-02-15T15:15:32;16.50;;;5.03;;
71387;SDS011;59201;59.902;10.520;2023-02-15T15:18:01;22.60;;;6.13;;
71387;SDS011;59201;59.902;10.520;2023-02-15T15:20:44;18.52;;;5.88;;
71387;SDS011;59201;59.902;10.520;2023-02-15T15:30:56;22.73;;;7.03;;
71387;SDS011;59201;59.902;10.520;2023-02-15T15:34:09;16.90;;;5.63;;
71387;SDS011;59201;59.902;10.520;2023-02-15T15:49:26;22.60;;;7.80;;
71387;SDS011;59201;59.902;10.520;2023-02-15T15:51:53;19.80;;;6.97;;
71387;SDS011;59201;59.902;10.520;2023-02-15T15:54:21;22.20;;;6.93;;
71387;SDS011;59201;59.902;10.520;2023-02-15T15:56:49;22.30;;;6.78;;
71387;SDS011;59201;59.902;10.520;2023-02-15T15:59:23;21.77;;;7.05;;
71387;SDS011;59201;59.902;10.520;2023-02-15T16:01:50;20.55;;;7.78;;
71387;SDS011;59201;59.902;10.520;2023-02-15T16:04:26;15.70;;;6.70;;
71387;SDS011;59201;59.902;10.520;2023-02-15T16:06:54;26.00;;;8.63;;
71387;SDS011;59201;59.902;10.520;2023-02-15T16:09:25;24.27;;;8.05;;
71387;SDS011;59201;59.902;10.520;2023-02-15T16:11:52;24.75;;;8.23;;
71387;SDS011;59201;59.902;10.520;2023-02-15T16:14:28;25.52;;;8.45;;
71387;SDS011;59201;59.902;10.520;2023-02-15T16:16:56;22.10;;;6.67;;
71387;SDS011;59201;59.902;10.520;2023-02-15T16:19:24;20.40;;;6.88;;
71387;SDS011;59201;59.902;10.520;2023-02-15T16:21:52;22.05;;;6.70;;
71387;SDS011;59201;59.902;10.520;2023-02-15T16:29:35;21.63;;;6.77;;
71387;SDS011;59201;59.902;10.520;2023-02-15T16:32:03;25.83;;;7.47;;
71387;SDS011;59201;59.902;10.520;2023-02-15T16:34:29;24.25;;;7.30;;
71387;SDS011;59201;59.902;10.520;2023-02-15T16:37:13;21.77;;;7.20;;
71387;SDS011;59201;59.902;10.520;2023-02-15T16:39:43;22.67;;;7.20;;
71387;SDS011;59201;59.902;10.520;2023-02-15T16:42:10;23.03;;;7.40;;
71387;SDS011;59201;59.902;10.520;2023-02-15T16:44:37;29.23;;;8.18;;
71387;SDS011;59201;59.902;10.520;2023-02-15T16:47:03;25.77;;;7.95;;
71387;SDS011;59201;59.902;10.520;2023-02-15T16:49:29;22.80;;;6.45;;
71387;SDS011;59201;59.902;10.520;2023-02-15T16:52:02;22.60;;;7.13;;
71387;SDS011;59201;59.902;10.520;2023-02-15T16:54:33;23.97;;;7.30;;
71387;SDS011;59201;59.902;10.520;2023-02-15T16:56:59;23.58;;;7.05;;
71387;SDS011;59201;59.902;10.520;2023-02-15T16:59:35;25.08;;;7.32;;
71387;SDS011;59201;59.902;10.520;2023-02-15T17:02:05;28.02;;;7.30;;
71387;SDS011;59201;59.902;10.520;2023-02-15T17:04:36;22.60;;;7.25;;
71387;SDS011;59201;59.902;10.520;2023-02-15T17:09:30;26.35;;;7.35;;
71387;SDS011;59201;59.902;10.520;2023-02-15T17:11:56;24.00;;;7.85;;
71387;SDS011;59201;59.902;10.520;2023-02-15T17:14:28;27.55;;;8.13;;
71387;SDS011;59201;59.902;10.520;2023-02-15T17:17:02;29.63;;;8.80;;
71387;SDS011;59201;59.902;10.520;2023-02-15T17:19:32;30.73;;;7.63;;
71387;SDS011;59201;59.902;10.520;2023-02-15T17:22:01;21.75;;;7.35;;
71387;SDS011;59201;59.902;10.520;2023-02-15T17:26:55;25.67;;;8.20;;
71387;SDS011;59201;59.902;10.520;2023-02-15T17:31:51;29.10;;;8.63;;
71387;SDS011;59201;59.902;10.520;2023-02-15T17:37:02;27.50;;;8.05;;
71387;SDS011;59201;59.902;10.520;2023-02-15T17:39:28;30.33;;;9.18;;
71387;SDS011;59201;59.902;10.520;2023-02-15T17:41:54;27.90;;;9.65;;
71387;SDS011;59201;59.902;10.520;2023-02-15T17:44:20;26.57;;;10.33;;
71387;SDS011;59201;59.902;10.520;2023-02-15T17:46:47;36.08;;;12.05;;
71387;SDS011;59201;59.902;10.520;2023-02-15T17:49:20;39.28;;;12.57;;
71387;SDS011;59201;59.902;10.520;2023-02-15T17:51:48;32.97;;;11.70;;